createdAt,value
2023-01-08T00:01:23.401Z,2.30
2023-01-08T00:04:28.249Z,2.30
2023-01-08T00:07:33.429Z,2.23
2023-01-08T00:10:40.656Z,2.63
2023-01-08T00:13:45.749Z,2.30
2023-01-08T00:16:53.310Z,2.47
2023-01-08T00:19:58.595Z,2.47
2023-01-08T00:23:03.491Z,2.70
2023-01-08T00:26:10.671Z,2.37
2023-01-08T00:29:16.513Z,3.17
2023-01-08T00:32:23.146Z,3.43
2023-01-08T00:35:28.261Z,3.57
2023-01-08T00:38:33.444Z,3.70
2023-01-08T00:41:38.523Z,2.87
2023-01-08T00:44:43.252Z,3.80
2023-01-08T00:47:50.367Z,3.80
2023-01-08T00:50:56.279Z,5.23
2023-01-08T00:54:01.453Z,5.63
2023-01-08T00:57:06.940Z,5.13
2023-01-08T01:00:15.019Z,4.80
2023-01-08T01:03:23.225Z,3.73
2023-01-08T01:06:28.265Z,5.77
2023-01-08T01:09:33.232Z,3.57
2023-01-08T01:12:39.535Z,4.10
2023-01-08T01:15:44.610Z,3.10
2023-01-08T01:18:52.633Z,3.80
2023-01-08T01:21:57.551Z,5.33
2023-01-08T01:25:02.538Z,3.77
2023-01-08T01:28:07.659Z,4.23
2023-01-08T01:31:14.036Z,3.63
2023-01-08T01:34:20.469Z,4.60
2023-01-08T01:37:24.942Z,4.30
2023-01-08T01:40:29.900Z,3.50
2023-01-08T01:43:39.108Z,4.30
2023-01-08T01:46:43.915Z,4.00
2023-01-08T01:50:02.298Z,3.37
2023-01-08T01:53:11.199Z,4.83
2023-01-08T01:56:16.228Z,4.50
2023-01-08T01:59:21.369Z,3.73
2023-01-08T02:02:26.514Z,4.23
2023-01-08T02:05:39.126Z,3.80
2023-01-08T02:08:53.616Z,3.90
2023-01-08T02:12:18.542Z,3.87
2023-01-08T02:15:28.035Z,4.17
2023-01-08T02:18:40.417Z,4.20
2023-01-08T02:21:59.697Z,3.77
2023-01-08T02:25:12.488Z,4.33
2023-01-08T02:28:21.630Z,4.40
2023-01-08T02:31:28.788Z,4.67
2023-01-08T02:34:33.619Z,3.83
2023-01-08T02:37:39.308Z,4.43
2023-01-08T02:40:56.298Z,4.13
2023-01-08T02:44:03.081Z,3.57
2023-01-08T02:47:13.856Z,3.37
2023-01-08T02:50:26.385Z,3.07
2023-01-08T02:53:34.477Z,3.00
2023-01-08T02:56:43.755Z,3.03
2023-01-08T02:59:51.896Z,3.03
2023-01-08T03:03:08.006Z,2.83
2023-01-08T03:06:17.578Z,2.80
2023-01-08T03:09:22.609Z,2.97
2023-01-08T03:12:36.065Z,2.60
2023-01-08T03:15:48.095Z,2.67
2023-01-08T03:18:56.900Z,2.57
2023-01-08T03:22:03.820Z,2.27
2023-01-08T03:25:10.603Z,2.40
2023-01-08T03:28:19.785Z,3.00
2023-01-08T03:31:30.472Z,3.00
2023-01-08T03:34:39.308Z,2.77
2023-01-08T03:37:48.042Z,2.90
2023-01-08T03:40:57.155Z,2.60
2023-01-08T03:44:02.216Z,2.87
2023-01-08T03:47:11.767Z,2.30
2023-01-08T03:50:22.011Z,2.10
2023-01-08T03:53:26.959Z,2.07
2023-01-08T03:56:31.576Z,1.90
2023-01-08T03:59:36.660Z,1.77
2023-01-08T04:02:43.467Z,2.10
2023-01-08T04:05:47.771Z,2.20
2023-01-08T04:08:53.375Z,2.30
2023-01-08T04:11:58.527Z,1.97
2023-01-08T04:15:03.233Z,1.73
2023-01-08T04:18:09.693Z,1.63
2023-01-08T04:21:14.087Z,1.80
2023-01-08T04:24:19.074Z,2.33
2023-01-08T04:27:23.676Z,2.23
2023-01-08T04:30:28.485Z,2.97
2023-01-08T04:33:34.729Z,2.13
2023-01-08T04:36:39.605Z,1.87
2023-01-08T04:39:44.402Z,2.40
2023-01-08T04:42:49.338Z,1.60
2023-01-08T04:45:54.550Z,1.87
2023-01-08T04:49:00.749Z,1.43
2023-01-08T04:52:05.651Z,1.30
2023-01-08T04:55:12.293Z,1.30
2023-01-08T04:58:17.565Z,1.60
2023-01-08T05:01:23.615Z,1.80
2023-01-08T05:04:29.662Z,1.30
2023-01-08T05:07:34.539Z,1.30
2023-01-08T05:10:39.066Z,1.30
2023-01-08T05:13:43.848Z,1.40
2023-01-08T05:16:48.816Z,1.20
2023-01-08T05:19:54.972Z,1.67
2023-01-08T05:22:59.365Z,1.13
2023-01-08T05:26:06.392Z,1.30
2023-01-08T05:29:12.374Z,1.20
2023-01-08T05:32:19.231Z,1.50
2023-01-08T05:35:27.813Z,1.30
2023-01-08T05:38:37.487Z,0.97
2023-01-08T05:41:41.873Z,1.00
2023-01-08T05:44:46.367Z,1.20
2023-01-08T05:47:51.235Z,1.10
2023-01-08T05:50:57.711Z,1.33
2023-01-08T05:54:02.517Z,1.03
2023-01-08T05:57:07.564Z,1.10
2023-01-08T06:00:14.615Z,1.00
2023-01-08T06:03:30.496Z,0.80
2023-01-08T06:06:37.075Z,0.80
2023-01-08T06:09:41.857Z,0.77
2023-01-08T06:12:46.769Z,0.80
2023-01-08T06:15:51.785Z,0.70
2023-01-08T06:18:56.645Z,0.57
2023-01-08T06:22:02.838Z,0.77
2023-01-08T06:25:08.139Z,0.60
2023-01-08T06:28:12.810Z,0.50
2023-01-08T06:31:17.838Z,0.60
2023-01-08T06:34:23.382Z,0.80
2023-01-08T06:37:29.449Z,0.50
2023-01-08T06:40:34.314Z,0.40
2023-01-08T06:43:39.305Z,0.70
2023-01-08T06:46:44.221Z,0.57
2023-01-08T06:49:50.891Z,0.50
2023-01-08T06:52:58.362Z,0.60
2023-01-08T06:56:04.727Z,0.60
2023-01-08T06:59:09.451Z,0.43
2023-01-08T07:02:16.120Z,0.40
2023-01-08T07:05:21.503Z,0.63
2023-01-08T07:08:27.944Z,0.47
2023-01-08T07:11:32.810Z,0.40
2023-01-08T07:14:37.385Z,0.40
2023-01-08T07:17:45.092Z,0.50
2023-01-08T07:20:51.139Z,0.40
2023-01-08T07:23:57.670Z,0.33
2023-01-08T07:27:02.628Z,0.40
2023-01-08T07:30:11.027Z,0.50
2023-01-08T07:33:22.834Z,0.43
2023-01-08T07:36:29.177Z,0.50
2023-01-08T07:39:35.305Z,0.60
2023-01-08T07:42:40.076Z,0.70
2023-01-08T07:45:44.825Z,0.70
2023-01-08T07:48:49.712Z,0.80
2023-01-08T07:51:56.455Z,0.77
2023-01-08T07:55:02.807Z,0.50
2023-01-08T07:58:12.102Z,0.83
2023-01-08T08:01:17.702Z,0.50
2023-01-08T08:04:22.198Z,0.30
2023-01-08T08:07:28.043Z,0.40
2023-01-08T08:10:34.100Z,0.50
2023-01-08T08:13:43.295Z,0.53
2023-01-08T08:16:48.295Z,0.43
2023-01-08T08:19:53.193Z,0.57
2023-01-08T08:23:03.418Z,0.50
2023-01-08T08:26:10.134Z,0.50
2023-01-08T08:29:15.143Z,0.30
2023-01-08T08:32:19.977Z,0.50
2023-01-08T08:35:24.810Z,0.40
2023-01-08T08:38:29.876Z,0.50
2023-01-08T08:41:36.158Z,0.57
2023-01-08T08:44:42.857Z,0.33
2023-01-08T08:47:47.731Z,0.60
2023-01-08T08:50:52.586Z,0.50
2023-01-08T08:53:57.377Z,0.43
2023-01-08T08:57:06.043Z,0.40
2023-01-08T09:00:11.777Z,0.57
2023-01-08T09:03:18.709Z,0.60
2023-01-08T09:06:24.640Z,0.40
2023-01-08T09:09:30.219Z,0.40
2023-01-08T09:12:36.918Z,0.50
2023-01-08T09:15:42.143Z,0.70
2023-01-08T09:18:47.494Z,0.83
2023-01-08T09:21:53.060Z,0.97
2023-01-08T09:25:00.917Z,0.60
2023-01-08T09:28:09.456Z,0.60
2023-01-08T09:31:19.387Z,0.33
2023-01-08T09:34:28.563Z,0.53
2023-01-08T09:37:33.584Z,0.67
2023-01-08T09:40:47.090Z,0.80
2023-01-08T09:43:56.788Z,0.50
2023-01-08T09:47:02.988Z,0.50
2023-01-08T09:50:13.283Z,0.53
2023-01-08T09:53:20.457Z,1.30
2023-01-08T09:56:25.410Z,0.53
2023-01-08T09:59:32.811Z,0.80
2023-01-08T10:02:43.613Z,0.50
2023-01-08T10:05:48.165Z,0.40
2023-01-08T10:08:55.503Z,0.60
2023-01-08T10:12:03.814Z,0.50
2023-01-08T10:15:18.209Z,0.70
2023-01-08T10:18:28.701Z,0.57
2023-01-08T10:21:38.585Z,0.50
2023-01-08T10:24:43.502Z,0.70
2023-01-08T10:27:52.688Z,0.60
2023-01-08T10:31:05.940Z,0.57
2023-01-08T10:34:12.473Z,0.60
2023-01-08T10:37:22.922Z,0.60
2023-01-08T10:40:32.735Z,0.80
2023-01-08T10:43:44.284Z,0.60
2023-01-08T10:46:53.097Z,0.30
2023-01-08T10:49:58.951Z,0.70
2023-01-08T10:53:07.005Z,0.70
2023-01-08T10:56:23.921Z,0.60
2023-01-08T10:59:29.485Z,0.60
2023-01-08T11:02:39.808Z,0.87
2023-01-08T11:05:45.425Z,0.80
2023-01-08T11:08:55.280Z,0.80
2023-01-08T11:12:00.903Z,0.30
2023-01-08T11:15:08.347Z,0.73
2023-01-08T11:18:21.702Z,0.80
2023-01-08T11:21:29.172Z,0.60
2023-01-08T11:24:36.807Z,0.50
2023-01-08T11:27:45.117Z,0.50
2023-01-08T11:30:57.182Z,0.47
2023-01-08T11:34:14.243Z,0.80
2023-01-08T11:37:23.192Z,0.70
2023-01-08T11:40:37.390Z,0.47
2023-01-08T11:43:57.329Z,1.10
2023-01-08T11:47:11.992Z,1.07
2023-01-08T11:50:24.333Z,0.30
2023-01-08T11:53:38.053Z,0.50
2023-01-08T11:57:00.166Z,0.20
2023-01-08T12:00:17.342Z,0.40
2023-01-08T12:03:33.647Z,1.17
2023-01-08T12:06:47.124Z,0.77
2023-01-08T12:09:59.722Z,0.80
2023-01-08T12:13:17.196Z,0.70
2023-01-08T12:16:41.790Z,0.67
2023-01-08T12:20:03.060Z,0.40
2023-01-08T12:23:22.181Z,0.40
2023-01-08T12:26:32.497Z,0.70
2023-01-08T12:30:02.137Z,0.40
2023-01-08T12:33:11.322Z,0.40
2023-01-08T12:36:22.046Z,0.50
2023-01-08T12:39:32.289Z,0.57
2023-01-08T12:42:46.767Z,0.80
2023-01-08T12:45:58.782Z,0.80
2023-01-08T12:49:04.272Z,0.50
2023-01-08T12:52:18.776Z,0.60
2023-01-08T12:55:35.548Z,0.37
2023-01-08T12:58:53.404Z,0.63
2023-01-08T13:02:05.589Z,0.40
2023-01-08T13:05:15.029Z,0.50
2023-01-08T13:08:33.934Z,0.33
2023-01-08T13:11:42.820Z,0.50
2023-01-08T13:14:54.336Z,0.43
2023-01-08T13:18:04.774Z,0.43
2023-01-08T13:21:13.922Z,0.47
2023-01-08T13:24:33.167Z,0.40
2023-01-08T13:27:39.812Z,0.30
2023-01-08T13:30:48.757Z,0.40
2023-01-08T13:33:54.319Z,0.30
2023-01-08T13:37:00.969Z,0.40
2023-01-08T13:40:07.448Z,0.50
2023-01-08T13:43:18.464Z,0.60
2023-01-08T13:46:25.757Z,0.20
2023-01-08T13:49:35.417Z,0.20
2023-01-08T13:52:46.416Z,0.30
2023-01-08T13:56:01.450Z,0.20
2023-01-08T13:59:08.588Z,0.40
2023-01-08T14:02:31.439Z,0.40
2023-01-08T14:05:37.456Z,0.40
2023-01-08T14:16:18.670Z,0.50
2023-01-08T14:19:25.626Z,0.30
2023-01-08T14:22:35.628Z,0.60
2023-01-08T14:25:42.126Z,0.20
2023-01-08T14:28:54.954Z,0.30
2023-01-08T14:32:03.336Z,0.40
2023-01-08T14:35:10.773Z,0.50
2023-01-08T14:38:17.484Z,0.30
2023-01-08T14:41:50.053Z,0.30
2023-01-08T14:44:57.872Z,0.40
2023-01-08T14:48:11.176Z,0.47
2023-01-08T14:51:18.833Z,0.40
2023-01-08T14:54:39.781Z,0.30
2023-01-08T14:57:50.341Z,0.25
2023-01-08T15:01:01.626Z,0.13
2023-01-08T15:04:18.191Z,0.80
2023-01-08T15:07:28.176Z,0.27
2023-01-08T15:10:41.746Z,0.40
2023-01-08T15:13:47.319Z,0.57
2023-01-08T15:16:55.553Z,0.22
2023-01-08T15:20:02.977Z,0.17
2023-01-08T15:23:08.223Z,0.13
2023-01-08T15:26:18.802Z,0.40
2023-01-08T15:29:29.501Z,0.10
2023-01-08T15:32:37.549Z,0.40
2023-01-08T15:35:43.585Z,0.43
2023-01-08T15:38:48.780Z,0.37
2023-01-08T15:42:18.504Z,0.37
2023-01-08T15:45:25.353Z,0.30
2023-01-08T15:48:33.513Z,0.50
2023-01-08T15:51:45.904Z,0.40
2023-01-08T15:54:52.924Z,0.37
2023-01-08T15:57:57.758Z,0.20
2023-01-08T16:01:02.235Z,0.50
2023-01-08T16:04:07.094Z,0.70
2023-01-08T16:07:13.182Z,1.00
2023-01-08T16:10:20.930Z,0.90
2023-01-08T16:13:26.247Z,0.83
2023-01-08T16:16:31.655Z,0.67
2023-01-08T16:19:36.707Z,0.70
2023-01-08T16:22:44.185Z,0.60
2023-01-08T16:25:50.717Z,0.53
2023-01-08T16:28:55.583Z,0.63
2023-01-08T16:32:01.751Z,0.60
2023-01-08T16:35:07.489Z,0.50
2023-01-08T16:38:16.805Z,0.70
2023-01-08T16:41:21.736Z,0.80
2023-01-08T16:44:29.211Z,0.57
2023-01-08T16:47:36.034Z,0.50
2023-01-08T16:50:44.277Z,0.50
2023-01-08T16:53:52.327Z,0.33
2023-01-08T16:56:59.901Z,0.40
2023-01-08T17:00:04.650Z,0.63
2023-01-08T17:03:09.466Z,0.53
2023-01-08T17:06:16.726Z,0.70
2023-01-08T17:09:23.287Z,0.50
2023-01-08T17:12:28.327Z,0.80
2023-01-08T17:15:33.357Z,0.60
2023-01-08T17:18:39.148Z,0.83
2023-01-08T17:21:45.055Z,1.10
2023-01-08T17:24:51.956Z,0.70
2023-01-08T17:27:56.731Z,0.47
2023-01-08T17:31:05.086Z,0.60
2023-01-08T17:34:17.975Z,0.80
2023-01-08T17:50:04.314Z,0.93
2023-01-08T17:53:11.709Z,0.60
2023-01-08T17:56:19.297Z,0.40
2023-01-08T17:59:27.079Z,0.60
2023-01-08T18:02:32.615Z,1.23
2023-01-08T18:05:40.471Z,0.80
2023-01-08T18:08:47.030Z,1.20
2023-01-08T18:11:53.609Z,1.07
2023-01-08T18:15:08.474Z,1.03
2023-01-08T18:18:19.938Z,1.20
2023-01-08T18:21:35.896Z,1.23
2023-01-08T18:24:55.428Z,1.47
2023-01-08T18:28:17.507Z,1.80
2023-01-08T18:31:26.293Z,1.70
2023-01-08T18:34:35.845Z,2.33
2023-01-08T18:37:46.387Z,1.93
2023-01-08T18:40:58.299Z,1.60
2023-01-08T18:44:23.206Z,1.90
2023-01-08T18:47:37.159Z,1.90
2023-01-08T18:50:47.940Z,1.57
2023-01-08T18:53:56.812Z,2.00
2023-01-08T18:57:11.779Z,1.93
2023-01-08T19:00:24.876Z,1.97
2023-01-08T19:03:34.260Z,1.87
2023-01-08T19:06:44.662Z,1.97
2023-01-08T19:10:24.739Z,2.07
2023-01-08T19:13:38.089Z,2.50
2023-01-08T19:16:55.786Z,1.90
2023-01-08T19:20:10.247Z,2.80
2023-01-08T19:23:17.870Z,2.60
2023-01-08T19:26:25.321Z,1.90
2023-01-08T19:29:36.687Z,2.17
2023-01-08T19:32:43.601Z,2.50
2023-01-08T19:35:53.589Z,2.43
2023-01-08T19:39:00.038Z,2.03
2023-01-08T19:42:27.130Z,2.60
2023-01-08T19:45:33.787Z,1.90
2023-01-08T19:48:41.597Z,2.07
2023-01-08T19:51:48.154Z,1.90
2023-01-08T19:55:01.239Z,2.07
2023-01-08T19:58:10.818Z,1.90
2023-01-08T20:01:18.733Z,1.90
2023-01-08T20:04:25.531Z,2.23
2023-01-08T20:07:33.508Z,2.47
2023-01-08T20:10:41.873Z,1.83
2023-01-08T20:13:50.505Z,1.93
2023-01-08T20:16:57.567Z,2.20
2023-01-08T20:20:05.007Z,2.10
2023-01-08T20:23:15.349Z,1.77
2023-01-08T20:26:22.175Z,2.20
2023-01-08T20:29:29.492Z,2.33
2023-01-08T20:32:35.188Z,2.80
2023-01-08T20:35:39.984Z,2.10
2023-01-08T20:39:01.661Z,2.40
2023-01-08T20:42:10.140Z,2.30
2023-01-08T20:45:20.690Z,2.07
2023-01-08T20:48:30.008Z,1.83
2023-01-08T20:51:44.260Z,1.90
2023-01-08T20:55:01.141Z,1.50
2023-01-08T20:58:04.421Z,1.97
2023-01-08T21:01:11.631Z,1.60
2023-01-08T21:04:16.231Z,2.10
2023-01-08T21:07:18.925Z,1.97
2023-01-08T21:10:22.921Z,1.70
2023-01-08T21:13:25.680Z,1.40
2023-01-08T21:16:36.686Z,1.30
2023-01-08T21:19:39.375Z,1.80
2023-01-08T21:22:42.160Z,1.30
2023-01-08T21:25:46.243Z,1.80
2023-01-08T21:28:55.091Z,1.07
2023-01-08T21:31:57.827Z,1.30
2023-01-08T21:35:00.555Z,1.10
2023-01-08T21:38:07.551Z,1.30
2023-01-08T21:41:34.643Z,0.90
2023-01-08T21:44:54.731Z,1.37
2023-01-08T21:47:58.837Z,1.20
2023-01-08T21:51:01.608Z,2.80
2023-01-08T21:54:04.120Z,1.63
2023-01-08T21:57:09.238Z,1.10
2023-01-08T22:00:13.595Z,1.40
2023-01-08T22:03:16.658Z,0.80
2023-01-08T22:06:19.320Z,1.30
2023-01-08T22:09:21.957Z,1.13
2023-01-08T22:12:26.118Z,1.20
2023-01-08T22:15:28.755Z,0.80
2023-01-08T22:18:32.226Z,1.57
2023-01-08T22:21:34.886Z,1.70
2023-01-08T22:24:38.084Z,1.53
2023-01-08T22:27:42.104Z,1.57
2023-01-08T22:30:44.778Z,1.60
2023-01-08T22:33:47.445Z,1.50
2023-01-08T22:36:51.441Z,1.60
2023-01-08T22:39:54.149Z,1.20
2023-01-08T22:42:58.210Z,1.50
2023-01-08T22:46:01.260Z,1.47
2023-01-08T22:49:04.502Z,1.40
2023-01-08T22:52:08.228Z,1.30
2023-01-08T22:55:11.233Z,1.33
2023-01-08T22:58:15.278Z,1.20
2023-01-08T23:01:20.036Z,1.30
2023-01-08T23:04:22.940Z,1.00
2023-01-08T23:07:25.626Z,1.20
2023-01-08T23:10:28.683Z,1.00
2023-01-08T23:13:32.701Z,1.27
2023-01-08T23:16:35.830Z,1.60
2023-01-08T23:19:38.597Z,1.20
2023-01-08T23:22:41.500Z,1.67
2023-01-08T23:25:44.257Z,1.87
2023-01-08T23:28:49.182Z,1.93
2023-01-08T23:31:51.946Z,1.47
2023-01-08T23:34:54.818Z,1.60
2023-01-08T23:37:57.500Z,1.87
2023-01-08T23:41:00.367Z,1.70
2023-01-08T23:44:06.382Z,1.80
2023-01-08T23:47:09.091Z,2.00
2023-01-08T23:50:12.496Z,1.87
2023-01-08T23:53:15.145Z,2.00
2023-01-08T23:56:17.939Z,1.73
2023-01-08T23:59:22.229Z,1.73
